Devers, Texas
Current Conditions -  °F | °C
As of 2:55 PM on Tuesday 21 Oct 2014 (Local Time) from KBMT Reporting Station
Clear Clear  
Wind Chill: 80°   Ceiling: Unl
Heat Index: 80°   Visibility: 10mi
Dew Point: 57°   Wind: 9mph
Humidity: 46%   Direction: 70°ENE
Pressure: 30"   Gusts: NA
Location:  30.03°N, 94.59°W
Report Text: KBMT 211955Z AUTO 07008KT 10SM CLR 27/14 A3000 RMK AO2 T02660141
Loading
Personal Weather Stations






























Interactive Weather Map
Tropical Storm Tracking
New forecast layout! Learn more

10-Day Weather Forecast

Advertisements
Track Severe Weather on mobile